Time;durP1;ratioP1;P1;durP2;ratioP2;P2;SDS_P1;SDS_P2;PMS_P1;PMS_P2;Temp;Humidity;BMP_temperature;BMP_pressure;BME280_temperature;BME280_humidity;BME280_pressure;Samples;Min_cycle;Max_cycle;Signal;HPM_P1;HPM_P2
2023/09/07 00:01:52;;;;;;;7.90;4.15;;;21.50;99.90;;;;;;4991258;28;20101;-52
2023/09/07 00:04:19;;;;;;;4.95;3.88;;;21.40;99.90;;;;;;4993093;28;20030;-49
2023/09/07 00:06:45;;;;;;;4.95;3.60;;;21.40;99.90;;;;;;4976136;28;20428;-51
2023/09/07 00:09:11;;;;;;;5.78;3.95;;;21.40;99.90;;;;;;4986835;28;20296;-52
2023/09/07 00:11:37;;;;;;;3.70;3.17;;;21.30;99.90;;;;;;4983542;28;20027;-53
2023/09/07 00:14:03;;;;;;;7.80;3.03;;;21.30;99.90;;;;;;4993170;28;20041;-52
2023/09/07 00:16:35;;;;;;;4.68;3.75;;;21.30;99.90;;;;;;4991128;28;20065;-52
2023/09/07 00:19:02;;;;;;;5.00;3.75;;;21.20;99.90;;;;;;4990113;28;20025;-56
2023/09/07 00:21:27;;;;;;;5.10;3.60;;;21.10;99.90;;;;;;4992066;28;20460;-49
2023/09/07 00:23:54;;;;;;;6.28;3.72;;;21.10;99.90;;;;;;4984455;28;20059;-51
2023/09/07 00:26:20;;;;;;;3.83;3.13;;;21.00;99.90;;;;;;4984036;28;20030;-52
2023/09/07 00:28:46;;;;;;;7.00;4.18;;;21.00;99.90;;;;;;4995670;28;20089;-52
2023/09/07 00:31:12;;;;;;;6.55;3.25;;;21.00;99.90;;;;;;4995005;28;20491;-51
2023/09/07 00:33:37;;;;;;;8.00;3.67;;;20.90;99.90;;;;;;4995206;28;20034;-54
2023/09/07 00:36:03;;;;;;;5.40;3.70;;;20.90;99.90;;;;;;4994040;28;20030;-52
2023/09/07 00:38:29;;;;;;;4.60;3.53;;;20.90;99.90;;;;;;4994203;28;20074;-52
2023/09/07 00:40:55;;;;;;;3.85;3.38;;;20.80;99.90;;;;;;4995006;28;20023;-50
2023/09/07 00:43:21;;;;;;;4.15;3.20;;;20.80;99.90;;;;;;4989672;28;20125;-52
2023/09/07 00:45:47;;;;;;;6.20;3.63;;;20.80;99.90;;;;;;4981108;28;20098;-52
2023/09/07 00:48:14;;;;;;;5.88;3.75;;;20.80;99.90;;;;;;4994079;28;20160;-50
2023/09/07 00:50:41;;;;;;;3.72;3.42;;;20.70;99.90;;;;;;4992125;28;20027;-52
2023/09/07 00:53:07;;;;;;;5.10;3.40;;;20.70;99.90;;;;;;4993721;28;20839;-52
2023/09/07 00:55:34;;;;;;;3.45;3.15;;;20.70;99.90;;;;;;4995035;28;20023;-52
2023/09/07 00:58:01;;;;;;;5.88;4.47;;;20.60;99.90;;;;;;4992640;28;20610;-50
2023/09/07 01:00:27;;;;;;;4.57;3.50;;;20.60;99.90;;;;;;4994726;28;20023;-51
2023/09/07 01:02:53;;;;;;;3.63;3.33;;;20.60;99.90;;;;;;4994324;28;20128;-53
2023/09/07 01:05:21;;;;;;;8.70;4.03;;;20.60;99.90;;;;;;4993674;28;20499;-51
2023/09/07 01:07:54;;;;;;;4.75;3.45;;;20.50;99.90;;;;;;4980074;28;20057;-52
2023/09/07 01:10:21;;;;;;;4.50;3.50;;;20.50;99.90;;;;;;4978882;28;20035;-49
2023/09/07 01:12:47;;;;;;;;;;;20.50;99.90;;;;;;4989689;28;20494;-54
2023/09/07 01:15:12;;;;;;;4.70;4.20;;;20.40;99.90;;;;;;4993771;28;19917;-52
2023/09/07 01:17:39;;;;;;;7.70;3.83;;;20.40;99.90;;;;;;4992464;28;20018;-51
2023/09/07 01:20:11;;;;;;;3.60;3.30;;;20.40;99.90;;;;;;4994300;28;20463;-53
2023/09/07 01:22:38;;;;;;;3.97;2.85;;;20.40;99.90;;;;;;4995377;28;20557;-52
2023/09/07 01:25:06;;;;;;;3.97;3.58;;;20.40;99.90;;;;;;4994287;28;20120;-53
2023/09/07 01:27:33;;;;;;;5.53;4.13;;;20.30;99.90;;;;;;4988175;28;20031;-50
2023/09/07 01:29:58;;;;;;;4.63;3.15;;;20.30;99.90;;;;;;4993194;28;20552;-50
2023/09/07 01:32:26;;;;;;;4.75;3.78;;;20.30;99.90;;;;;;4983153;28;20050;-51
2023/09/07 01:34:56;;;;;;;4.03;3.63;;;20.20;99.90;;;;;;4990776;28;20542;-51
2023/09/07 01:37:22;;;;;;;4.03;3.63;;;20.20;99.90;;;;;;4991374;28;20049;-50
2023/09/07 01:39:48;;;;;;;4.65;3.55;;;20.20;99.90;;;;;;4989765;28;20144;-50
2023/09/07 01:42:14;;;;;;;3.47;3.17;;;20.20;99.90;;;;;;4993377;28;20033;-52
2023/09/07 01:44:40;;;;;;;6.10;3.63;;;20.10;99.90;;;;;;4988793;28;20495;-52
2023/09/07 01:47:05;;;;;;;6.97;4.00;;;20.10;99.90;;;;;;4993471;28;20026;-51
2023/09/07 01:49:31;;;;;;;3.72;3.42;;;20.10;99.90;;;;;;4994035;28;20030;-52
2023/09/07 01:51:57;;;;;;;5.38;3.38;;;20.10;99.90;;;;;;4989229;28;20499;-52
2023/09/07 01:54:22;;;;;;;5.65;3.50;;;20.10;99.90;;;;;;4994233;28;20030;-50
2023/09/07 01:56:48;;;;;;;5.00;4.03;;;20.00;99.90;;;;;;4993142;28;20030;-51
2023/09/07 01:59:13;;;;;;;3.83;3.42;;;20.00;99.90;;;;;;4992283;28;20023;-53
2023/09/07 02:01:40;;;;;;;5.28;3.35;;;20.00;99.90;;;;;;4994184;28;20019;-51
2023/09/07 02:04:06;;;;;;;5.03;3.55;;;19.90;99.90;;;;;;4993114;28;20442;-53
2023/09/07 02:06:31;;;;;;;6.60;3.83;;;19.90;99.90;;;;;;4993814;28;20061;-49
2023/09/07 02:08:57;;;;;;;7.15;3.92;;;19.90;99.90;;;;;;4993107;28;20026;-53
2023/09/07 02:11:23;;;;;;;4.85;4.00;;;19.80;99.90;;;;;;4987535;28;20559;-52
2023/09/07 02:13:49;;;;;;;5.68;3.78;;;19.80;99.90;;;;;;4982837;28;20062;-51
2023/09/07 02:16:14;;;;;;;6.72;3.75;;;19.80;99.90;;;;;;4974650;28;20484;-50
2023/09/07 02:18:43;;;;;;;5.10;4.10;;;19.80;99.90;;;;;;4989957;28;20054;-53
2023/09/07 02:21:09;;;;;;;5.05;4.07;;;19.80;99.90;;;;;;4993661;28;20113;-52
2023/09/07 02:23:36;;;;;;;4.50;3.60;;;19.70;99.90;;;;;;4977082;28;20031;-49
2023/09/07 02:26:02;;;;;;;5.40;4.10;;;19.70;99.90;;;;;;4983217;28;20018;-53
2023/09/07 02:28:28;;;;;;;4.93;4.03;;;19.70;99.90;;;;;;4988552;28;20419;-51
2023/09/07 02:30:53;;;;;;;7.07;4.57;;;19.70;99.90;;;;;;4982968;28;20054;-53
2023/09/07 02:33:19;;;;;;;6.45;4.75;;;19.60;99.90;;;;;;4992520;28;20022;-53
2023/09/07 02:35:45;;;;;;;7.80;4.60;;;19.60;99.90;;;;;;4993106;28;20023;-51
2023/09/07 02:38:10;;;;;;;4.15;3.75;;;19.60;99.90;;;;;;4993118;28;20522;-53
2023/09/07 02:40:43;;;;;;;5.03;3.90;;;19.50;99.90;;;;;;4980368;28;20023;-51
2023/09/07 02:43:09;;;;;;;4.25;3.70;;;19.50;99.90;;;;;;4994122;28;20472;-52
2023/09/07 02:45:35;;;;;;;4.47;4.07;;;19.50;99.90;;;;;;4993361;28;20074;-53
2023/09/07 02:48:01;;;;;;;4.70;4.22;;;19.50;99.90;;;;;;4985762;28;20361;-50
2023/09/07 02:50:29;;;;;;;4.93;4.47;;;19.50;99.90;;;;;;4989527;28;20093;-52
2023/09/07 02:52:55;;;;;;;5.22;4.30;;;19.50;99.90;;;;;;4992467;28;20487;-51
2023/09/07 02:55:21;;;;;;;11.23;4.55;;;19.40;99.90;;;;;;4960901;28;20050;-52
2023/09/07 02:57:46;;;;;;;7.22;4.30;;;19.40;99.90;;;;;;4992633;28;20447;-51
2023/09/07 03:00:13;;;;;;;7.43;4.75;;;19.40;99.90;;;;;;4985561;28;20058;-50
2023/09/07 03:02:38;;;;;;;6.60;4.40;;;19.40;99.90;;;;;;4987772;28;20026;-46
2023/09/07 03:05:04;;;;;;;6.80;4.43;;;19.40;99.90;;;;;;4987513;28;20050;-52
2023/09/07 03:07:33;;;;;;;7.40;4.35;;;19.30;99.90;;;;;;4979633;28;20538;-49
2023/09/07 03:09:59;;;;;;;9.75;4.60;;;19.40;99.90;;;;;;4992185;28;20057;-51
2023/09/07 03:12:25;;;;;;;7.15;4.22;;;19.30;99.90;;;;;;4984331;28;20055;-52
2023/09/07 03:14:51;;;;;;;7.07;4.60;;;19.30;99.90;;;;;;4974095;28;20037;-51
2023/09/07 03:17:17;;;;;;;4.97;4.10;;;19.30;99.90;;;;;;4988710;28;20026;-45
2023/09/07 03:19:43;;;;;;;5.95;3.80;;;19.30;99.90;;;;;;4992235;28;20038;-51
2023/09/07 03:22:09;;;;;;;6.20;5.00;;;19.30;99.90;;;;;;4992432;28;20023;-52
2023/09/07 03:24:35;;;;;;;5.47;4.68;;;19.20;99.90;;;;;;4992506;28;20054;-51
2023/09/07 03:27:01;;;;;;;6.72;5.35;;;19.20;99.90;;;;;;4977187;28;20069;-51
2023/09/07 03:29:26;;;;;;;5.97;4.57;;;19.20;99.90;;;;;;4973208;28;20058;-51
2023/09/07 03:31:52;;;;;;;5.03;4.30;;;19.20;99.90;;;;;;4979638;28;20042;-47
2023/09/07 03:34:19;;;;;;;7.07;5.28;;;19.20;99.90;;;;;;4989746;28;20031;-53
2023/09/07 03:36:45;;;;;;;4.85;4.22;;;19.10;99.90;;;;;;4988039;28;20065;-52
2023/09/07 03:39:10;;;;;;;7.78;4.82;;;19.10;99.90;;;;;;4990628;28;20090;-52
2023/09/07 03:41:36;;;;;;;9.35;4.70;;;19.10;99.90;;;;;;4980206;28;20388;-51
2023/09/07 03:44:02;;;;;;;5.90;5.18;;;19.10;99.90;;;;;;4989311;28;20531;-52
2023/09/07 03:46:27;;;;;;;8.48;5.13;;;19.10;99.90;;;;;;4991901;28;20112;-51
2023/09/07 03:48:53;;;;;;;6.15;5.13;;;19.00;99.90;;;;;;4985120;28;20022;-53
2023/09/07 03:51:19;;;;;;;6.68;5.03;;;18.90;99.90;;;;;;4991664;28;20214;-53
2023/09/07 03:53:44;;;;;;;8.88;5.07;;;19.00;99.90;;;;;;4991662;28;20058;-47
2023/09/07 03:56:10;;;;;;;7.82;5.10;;;19.00;99.90;;;;;;4991460;28;20038;-53
2023/09/07 03:58:35;;;;;;;6.35;4.97;;;19.00;99.90;;;;;;4975767;28;20023;-52
2023/09/07 04:01:01;;;;;;;7.68;5.53;;;19.00;99.90;;;;;;4980972;28;20027;-53
2023/09/07 04:03:27;;;;;;;4.97;4.47;;;18.90;99.90;;;;;;4980355;28;20031;-52
2023/09/07 04:05:52;;;;;;;7.93;4.82;;;18.90;99.90;;;;;;4988619;28;20403;-48
2023/09/07 04:08:18;;;;;;;7.70;5.18;;;18.90;99.90;;;;;;4992749;28;20025;-52
2023/09/07 04:10:44;;;;;;;5.63;5.07;;;18.90;99.90;;;;;;4991606;28;20022;-50
2023/09/07 04:13:10;;;;;;;6.78;5.30;;;18.80;99.90;;;;;;4985092;28;20066;-52
2023/09/07 04:15:45;;;;;;;7.13;5.25;;;18.80;99.90;;;;;;4987850;28;20030;-53
2023/09/07 04:18:16;;;;;;;5.93;4.85;;;18.80;99.90;;;;;;4995784;28;20439;-52
2023/09/07 04:20:42;;;;;;;8.38;4.55;;;18.80;99.90;;;;;;4992816;28;20023;-51
2023/09/07 04:23:08;;;;;;;6.45;4.72;;;18.70;99.90;;;;;;4990702;28;20042;-51
2023/09/07 04:25:33;;;;;;;7.15;4.95;;;18.70;99.90;;;;;;4996598;28;20060;-52
2023/09/07 04:27:59;;;;;;;6.85;4.90;;;18.70;99.90;;;;;;4994849;28;20057;-51
2023/09/07 04:30:25;;;;;;;7.75;5.30;;;18.70;99.90;;;;;;4995808;28;20026;-52
2023/09/07 04:32:50;;;;;;;6.93;4.97;;;18.60;99.90;;;;;;4995565;28;20448;-50
2023/09/07 04:35:16;;;;;;;6.35;4.75;;;18.60;99.90;;;;;;4996231;28;20034;-52
2023/09/07 04:37:43;;;;;;;7.63;5.57;;;18.60;99.90;;;;;;4990665;28;20152;-52
2023/09/07 04:40:09;;;;;;;6.55;4.53;;;18.60;99.90;;;;;;4996353;28;20014;-53
2023/09/07 04:42:35;;;;;;;7.25;5.28;;;18.60;99.90;;;;;;4994988;28;20056;-52
2023/09/07 04:45:01;;;;;;;8.73;5.50;;;18.60;99.90;;;;;;4984158;28;20018;-52
2023/09/07 04:47:26;;;;;;;7.50;5.60;;;18.60;99.90;;;;;;4995192;28;20506;-53
2023/09/07 04:49:52;;;;;;;9.65;5.35;;;18.50;99.90;;;;;;4986805;28;20089;-50
2023/09/07 04:52:18;;;;;;;7.38;5.25;;;18.50;99.90;;;;;;4967514;28;20031;-53
2023/09/07 04:54:44;;;;;;;8.43;5.80;;;18.50;99.90;;;;;;4981158;28;20034;-51
2023/09/07 04:57:10;;;;;;;6.72;5.00;;;18.50;99.90;;;;;;4981013;28;20050;-51
2023/09/07 04:59:36;;;;;;;7.45;5.80;;;18.50;99.90;;;;;;4992424;28;20161;-51
2023/09/07 05:02:01;;;;;;;7.22;5.60;;;18.50;99.90;;;;;;4994889;28;20026;-52
2023/09/07 05:04:28;;;;;;;8.55;5.30;;;18.50;99.90;;;;;;4994934;28;20050;-53
2023/09/07 05:06:53;;;;;;;6.40;4.70;;;18.50;99.90;;;;;;4994235;28;20105;-51
2023/09/07 05:09:20;;;;;;;7.90;4.75;;;18.50;99.90;;;;;;4991654;28;20113;-51
2023/09/07 05:11:45;;;;;;;6.82;5.25;;;18.60;99.90;;;;;;4993856;28;20033;-53
2023/09/07 05:14:11;;;;;;;7.55;5.38;;;18.50;99.90;;;;;;4994781;28;20030;-54
2023/09/07 05:16:37;;;;;;;6.70;5.40;;;18.50;99.90;;;;;;4990053;28;20080;-50
2023/09/07 05:19:03;;;;;;;6.78;5.07;;;18.60;99.90;;;;;;4994825;28;20480;-54
2023/09/07 05:21:29;;;;;;;8.00;5.18;;;18.60;99.90;;;;;;4993799;28;20057;-53
2023/09/07 05:23:54;;;;;;;14.70;6.03;;;18.60;99.90;;;;;;4975960;28;20053;-51
2023/09/07 05:26:24;;;;;;;8.40;4.82;;;18.60;99.90;;;;;;4993818;28;20525;-53
2023/09/07 05:28:50;;;;;;;8.43;5.45;;;18.60;99.90;;;;;;4992915;28;20089;-53
2023/09/07 05:31:15;;;;;;;9.27;4.78;;;18.60;99.90;;;;;;4991366;28;20065;-49
2023/09/07 05:33:41;;;;;;;6.82;5.00;;;18.70;99.90;;;;;;4994179;28;20033;-52
2023/09/07 05:36:07;;;;;;;6.97;4.55;;;18.70;99.90;;;;;;4994067;28;20030;-53
2023/09/07 05:38:32;;;;;;;9.88;5.30;;;18.70;99.90;;;;;;4992781;28;20046;-53
2023/09/07 05:40:58;;;;;;;9.13;6.03;;;18.70;99.90;;;;;;4993009;28;20089;-54
2023/09/07 05:43:24;;;;;;;7.70;5.22;;;18.80;99.90;;;;;;4994982;28;20501;-51
2023/09/07 05:45:49;;;;;;;8.30;5.47;;;18.80;99.90;;;;;;4979470;28;20117;-53
2023/09/07 05:48:18;;;;;;;9.68;5.28;;;18.90;99.90;;;;;;4993641;28;20031;-52
2023/09/07 05:50:44;;;;;;;12.43;5.50;;;18.90;99.90;;;;;;4982465;28;20029;-53
2023/09/07 05:53:10;;;;;;;10.63;5.60;;;19.00;99.90;;;;;;4993818;28;20112;-43
2023/09/07 05:55:36;;;;;;;10.13;5.60;;;19.10;99.90;;;;;;4993359;28;20421;-39
2023/09/07 05:58:06;;;;;;;5.55;4.93;;;19.20;99.90;;;;;;4993981;28;20024;-39
2023/09/07 06:00:31;;;;;;;8.05;5.32;;;19.20;99.90;;;;;;4982653;28;20125;-39
2023/09/07 06:02:57;;;;;;;7.68;4.85;;;19.30;99.90;;;;;;4993636;28;20126;-46
2023/09/07 06:05:23;;;;;;;6.32;4.50;;;19.30;99.90;;;;;;4992113;28;20381;-39
2023/09/07 06:07:48;;;;;;;8.15;6.00;;;19.40;99.90;;;;;;4991847;28;20022;-39
2023/09/07 06:10:14;;;;;;;7.15;4.75;;;19.40;99.90;;;;;;4992509;28;20070;-39
2023/09/07 06:12:41;;;;;;;9.20;5.80;;;19.50;99.90;;;;;;4992723;28;20375;-39
2023/09/07 06:15:07;;;;;;;8.77;5.22;;;19.60;99.90;;;;;;4993710;28;20022;-38
2023/09/07 06:17:33;;;;;;;7.30;5.73;;;19.70;99.90;;;;;;4992454;28;20525;-39
2023/09/07 06:19:59;;;;;;;8.85;4.97;;;19.80;99.90;;;;;;4993017;28;20066;-42
2023/09/07 06:22:25;;;;;;;10.43;5.07;;;19.90;99.90;;;;;;4992029;28;20049;-38
2023/09/07 06:24:50;;;;;;;8.48;5.88;;;20.00;99.90;;;;;;4992965;28;20518;-40
2023/09/07 06:27:16;;;;;;;8.23;5.68;;;20.00;99.90;;;;;;4992370;28;20046;-39
2023/09/07 06:29:42;;;;;;;7.22;5.60;;;20.10;99.90;;;;;;4991868;28;20030;-40
2023/09/07 06:32:07;;;;;;;7.45;5.53;;;20.20;99.90;;;;;;4991822;28;20146;-39
2023/09/07 06:34:34;;;;;;;10.63;5.47;;;20.30;99.90;;;;;;4992350;28;20074;-38
2023/09/07 06:36:59;;;;;;;10.15;5.38;;;20.30;99.90;;;;;;4992483;28;20089;-39
2023/09/07 06:39:25;;;;;;;10.27;4.68;;;20.40;99.90;;;;;;4992683;28;20428;-39
2023/09/07 06:41:51;;;;;;;8.02;5.18;;;20.50;99.90;;;;;;4991420;28;20023;-39
2023/09/07 06:44:17;;;;;;;5.93;5.05;;;20.50;99.90;;;;;;4993584;28;20026;-41
2023/09/07 06:46:42;;;;;;;6.78;4.30;;;20.60;99.90;;;;;;4984561;28;20081;-40
2023/09/07 06:49:08;;;;;;;10.25;5.75;;;20.70;99.90;;;;;;4985851;28;20026;-38
2023/09/07 06:51:33;;;;;;;9.27;5.75;;;20.80;99.90;;;;;;4985450;28;20109;-37
2023/09/07 06:53:59;;;;;;;5.88;4.72;;;21.00;99.90;;;;;;4983429;28;20025;-39
2023/09/07 06:56:26;;;;;;;8.10;4.43;;;21.10;99.90;;;;;;4988350;28;20030;-39
2023/09/07 06:58:52;;;;;;;8.38;5.03;;;21.20;99.90;;;;;;4983072;28;20525;-38
2023/09/07 07:01:18;;;;;;;7.85;4.85;;;21.20;99.90;;;;;;4985188;28;20101;-37
2023/09/07 07:03:44;;;;;;;8.27;5.78;;;21.40;99.90;;;;;;4974378;28;20062;-37
2023/09/07 07:06:09;;;;;;;8.32;4.70;;;21.50;99.90;;;;;;4992792;28;20491;-40
2023/09/07 07:08:35;;;;;;;6.72;4.95;;;21.60;99.90;;;;;;4971370;28;20031;-37
2023/09/07 07:11:01;;;;;;;8.63;5.55;;;21.70;99.90;;;;;;4982682;28;20053;-37
2023/09/07 07:13:26;;;;;;;5.72;4.80;;;21.80;99.90;;;;;;4993482;28;20500;-37
2023/09/07 07:15:52;;;;;;;5.22;4.40;;;22.00;99.90;;;;;;4992863;28;20494;-39
2023/09/07 07:18:18;;;;;;;14.73;4.68;;;22.10;99.90;;;;;;4992514;28;20023;-36
2023/09/07 07:20:44;;;;;;;7.13;4.40;;;22.20;99.90;;;;;;4992540;28;20070;-37
2023/09/07 07:23:10;;;;;;;12.18;4.13;;;22.40;99.90;;;;;;4991561;28;20030;-38
2023/09/07 07:25:36;;;;;;;7.32;4.13;;;22.60;99.90;;;;;;4993094;28;20025;-41
2023/09/07 07:28:06;;;;;;;7.70;4.03;;;22.80;99.90;;;;;;4991826;28;20120;-42
2023/09/07 07:30:34;;;;;;;7.07;3.65;;;23.00;99.90;;;;;;4993035;28;20034;-38
2023/09/07 07:33:00;;;;;;;11.45;3.90;;;23.10;99.90;;;;;;4991798;28;20034;-38
2023/09/07 07:35:26;;;;;;;4.90;3.30;;;23.30;99.90;;;;;;4994337;28;20086;-38
2023/09/07 07:37:51;;;;;;;8.45;3.70;;;23.40;99.90;;;;;;5000220;28;20541;-39
2023/09/07 07:40:18;;;;;;;5.55;3.20;;;23.50;99.90;;;;;;4988256;28;20477;-38
2023/09/07 07:42:44;;;;;;;3.42;2.97;;;23.60;99.90;;;;;;4993879;28;20026;-37
2023/09/07 07:45:10;;;;;;;7.43;3.20;;;23.80;99.90;;;;;;4996139;28;20054;-39
2023/09/07 07:47:36;;;;;;;7.30;3.70;;;23.80;99.90;;;;;;4996402;28;20068;-38
2023/09/07 07:50:01;;;;;;;7.50;3.50;;;24.00;99.90;;;;;;4997031;28;20097;-43
2023/09/07 07:52:27;;;;;;;4.50;3.35;;;24.10;99.90;;;;;;4996054;28;20026;-40
2023/09/07 07:54:53;;;;;;;4.60;3.15;;;24.20;99.90;;;;;;4996878;28;20030;-38
2023/09/07 07:57:19;;;;;;;4.28;3.40;;;24.30;99.90;;;;;;4975380;28;20483;-38
2023/09/07 07:59:45;;;;;;;3.95;2.80;;;24.40;99.90;;;;;;4996860;28;20033;-42
2023/09/07 08:02:10;;;;;;;2.97;2.35;;;24.60;99.90;;;;;;4994575;28;20042;-39
2023/09/07 08:04:36;;;;;;;3.45;2.53;;;24.70;99.90;;;;;;4994693;28;20026;-40
2023/09/07 08:07:06;;;;;;;11.55;2.72;;;24.70;99.90;;;;;;4995892;28;20056;-41
2023/09/07 08:09:32;;;;;;;5.20;3.03;;;24.90;99.90;;;;;;4975589;28;20038;-41
2023/09/07 08:12:00;;;;;;;4.50;2.60;;;25.00;99.90;;;;;;4994171;28;20026;-39
2023/09/07 08:14:27;;;;;;;3.83;2.63;;;25.10;99.90;;;;;;4979528;28;20031;-42
2023/09/07 08:16:53;;;;;;;3.47;2.63;;;25.10;99.90;;;;;;4994740;28;20480;-40
2023/09/07 08:19:19;;;;;;;3.13;2.35;;;25.20;99.90;;;;;;4989859;28;20037;-39
2023/09/07 08:21:46;;;;;;;5.65;2.95;;;25.30;99.90;;;;;;4995943;28;20029;-37
2023/09/07 08:24:12;;;;;;;4.32;2.30;;;25.40;99.90;;;;;;4996105;28;20383;-40
2023/09/07 08:26:37;;;;;;;6.57;2.42;;;25.50;99.90;;;;;;4974979;28;20030;-39
2023/09/07 08:29:08;;;;;;;3.42;2.55;;;25.70;99.90;;;;;;4993110;28;20117;-42
2023/09/07 08:31:38;;;;;;;7.38;2.53;;;25.90;99.90;;;;;;4984076;28;20074;-40
2023/09/07 08:34:09;;;;;;;3.42;2.38;;;26.00;99.90;;;;;;4985330;28;20033;-39
2023/09/07 08:36:34;;;;;;;4.38;2.33;;;26.20;99.90;;;;;;4976846;28;20030;-39
2023/09/07 08:39:12;;;;;;;5.85;2.38;;;26.20;99.90;;;;;;4995776;28;20444;-41
2023/09/07 08:41:43;;;;;;;5.07;2.70;;;26.20;99.90;;;;;;4989793;28;20077;-44
2023/09/07 08:44:14;;;;;;;2.67;2.40;;;26.30;99.90;;;;;;4976638;28;20029;-38
2023/09/07 08:46:41;;;;;;;4.95;2.45;;;26.40;99.90;;;;;;4980043;28;20022;-41
2023/09/07 08:49:08;;;;;;;2.53;2.33;;;26.50;99.90;;;;;;4995864;28;20631;-37
2023/09/07 08:51:37;;;;;;;9.73;2.78;;;26.50;99.90;;;;;;4995173;28;20434;-40
2023/09/07 08:54:03;;;;;;;2.97;2.45;;;26.60;99.90;;;;;;4995906;28;20030;-41
2023/09/07 08:56:29;;;;;;;2.88;2.40;;;26.80;99.90;;;;;;4990681;28;20062;-43
2023/09/07 08:58:54;;;;;;;5.88;2.42;;;26.80;99.90;;;;;;4985136;28;20065;-39
2023/09/07 09:01:23;;;;;;;2.40;2.20;;;26.90;99.90;;;;;;4995211;28;20029;-40
2023/09/07 09:03:50;;;;;;;2.35;2.15;;;27.00;99.90;;;;;;4983788;28;20559;-40
2023/09/07 09:06:20;;;;;;;6.15;2.72;;;27.10;99.90;;;;;;4979204;28;20467;-39
2023/09/07 09:08:49;;;;;;;7.03;2.83;;;27.10;99.90;;;;;;4995629;28;20112;-39
2023/09/07 09:11:15;;;;;;;2.42;2.20;;;27.20;99.90;;;;;;4994615;28;20465;-39
2023/09/07 09:13:42;;;;;;;4.72;2.60;;;27.20;99.90;;;;;;4994750;28;20022;-41
2023/09/07 09:16:08;;;;;;;4.82;2.53;;;27.30;99.90;;;;;;4993021;28;20041;-40
2023/09/07 09:18:33;;;;;;;3.40;2.58;;;27.30;99.90;;;;;;4994752;28;20039;-39
2023/09/07 09:20:59;;;;;;;8.48;2.88;;;27.30;99.90;;;;;;4994950;28;20471;-38
2023/09/07 09:23:35;;;;;;;2.63;2.03;;;27.30;99.90;;;;;;4994012;28;20025;-38
2023/09/07 09:26:03;;;;;;;2.45;2.17;;;27.30;99.90;;;;;;4993481;28;20376;-39
2023/09/07 09:28:31;;;;;;;4.03;2.05;;;27.40;99.90;;;;;;4990486;28;20467;-41
2023/09/07 09:30:58;;;;;;;6.07;2.15;;;27.50;99.90;;;;;;4998415;28;20025;-41
2023/09/07 09:33:24;;;;;;;;;;;27.70;99.90;;;;;;4977083;28;20023;-39
2023/09/07 09:35:51;;;;;;;3.58;2.17;;;27.90;99.90;;;;;;4989918;28;19917;-42
2023/09/07 09:38:17;;;;;;;6.60;2.20;;;27.90;99.90;;;;;;4994426;28;20050;-40
2023/09/07 09:40:43;;;;;;;2.60;2.15;;;28.00;99.90;;;;;;4995018;28;20541;-40
2023/09/07 09:43:09;;;;;;;4.28;2.00;;;28.10;99.90;;;;;;4994163;28;20072;-42
2023/09/07 09:45:35;;;;;;;3.63;1.93;;;28.20;99.90;;;;;;4995035;28;20050;-37
2023/09/07 09:48:03;;;;;;;2.97;1.70;;;28.30;99.90;;;;;;4994644;28;20483;-38
2023/09/07 09:50:29;;;;;;;3.88;2.30;;;28.40;99.90;;;;;;4994901;28;20507;-38
2023/09/07 09:52:56;;;;;;;2.53;2.33;;;28.50;99.90;;;;;;4970318;28;20074;-40
2023/09/07 09:55:22;;;;;;;4.00;2.22;;;28.50;99.90;;;;;;4988856;28;20518;-44
2023/09/07 09:57:48;;;;;;;2.42;2.10;;;28.60;99.90;;;;;;4993179;28;20070;-39
2023/09/07 10:02:59;;;;;;;2.83;2.25;;;28.70;99.90;;;;;;4991860;28;20069;-39
2023/09/07 10:05:26;;;;;;;5.95;2.78;;;28.70;99.90;;;;;;4969140;28;20037;-40
2023/09/07 10:07:51;;;;;;;3.00;2.40;;;28.70;99.90;;;;;;4985921;28;20471;-38
2023/09/07 10:10:19;;;;;;;3.28;2.40;;;28.90;99.90;;;;;;4992518;28;20053;-38
2023/09/07 10:12:56;;;;;;;3.03;2.10;;;29.00;99.90;;;;;;4992120;28;20029;-38
2023/09/07 10:15:23;;;;;;;3.67;2.50;;;29.00;99.90;;;;;;4988897;28;20085;-39
2023/09/07 10:17:52;;;;;;;3.60;2.58;;;29.00;99.90;;;;;;4988502;28;20358;-39
2023/09/07 10:20:22;;;;;;;4.00;2.55;;;29.10;99.90;;;;;;4991972;28;20046;-38
2023/09/07 10:22:48;;;;;;;3.20;2.40;;;29.10;99.90;;;;;;4994369;28;20057;-39
2023/09/07 10:25:21;;;;;;;2.28;1.85;;;29.20;99.90;;;;;;4988794;28;20031;-38
2023/09/07 10:27:47;;;;;;;3.22;2.40;;;29.30;99.90;;;;;;4982440;28;20101;-41
2023/09/07 10:30:14;;;;;;;3.15;1.90;;;29.40;99.90;;;;;;4991589;28;20034;-40
2023/09/07 10:32:43;;;;;;;2.40;2.20;;;29.50;99.70;;;;;;4985382;28;20031;-38
2023/09/07 10:35:16;;;;;;;2.22;2.03;;;29.70;99.40;;;;;;4976821;28;20081;-39
2023/09/07 10:37:45;;;;;;;3.00;2.05;;;29.70;99.80;;;;;;4986673;28;20035;-38
2023/09/07 10:40:11;;;;;;;5.18;2.60;;;29.70;98.70;;;;;;4993890;28;20392;-39
2023/09/07 10:42:38;;;;;;;2.40;2.20;;;29.60;99.40;;;;;;4993093;28;20026;-39
2023/09/07 10:45:16;;;;;;;2.90;2.20;;;29.60;99.70;;;;;;4976230;28;20025;-39
2023/09/07 10:47:48;;;;;;;2.45;2.25;;;29.70;99.00;;;;;;4993827;28;20037;-39
2023/09/07 10:50:14;;;;;;;2.78;2.38;;;29.80;99.30;;;;;;4992848;28;20395;-38
2023/09/07 10:52:41;;;;;;;6.70;2.30;;;29.90;98.70;;;;;;4993617;28;20487;-38
2023/09/07 10:55:11;;;;;;;2.78;2.40;;;30.00;98.70;;;;;;4993343;28;20070;-40
2023/09/07 10:57:47;;;;;;;4.05;2.35;;;30.20;98.50;;;;;;4993427;28;20116;-38
2023/09/07 11:00:14;;;;;;;5.57;2.15;;;30.30;98.60;;;;;;4991576;28;20026;-39
2023/09/07 11:02:41;;;;;;;;;;;30.30;98.60;;;;;;4994175;28;20105;-40
2023/09/07 11:05:07;;;;;;;;;;;30.40;98.30;;;;;;4991501;28;19918;-42
2023/09/07 11:07:33;;;;;;;2.07;1.90;;;30.50;98.20;;;;;;4989508;28;19913;-39
2023/09/07 11:09:59;;;;;;;4.33;2.70;;;30.50;98.60;;;;;;4992654;28;20030;-41
2023/09/07 11:12:24;;;;;;;3.47;2.20;;;30.50;98.60;;;;;;4993487;28;20368;-38
2023/09/07 11:14:51;;;;;;;7.60;2.30;;;30.70;98.10;;;;;;4992934;28;20030;-38
2023/09/07 11:17:17;;;;;;;3.17;2.22;;;30.70;98.00;;;;;;4990386;28;20082;-38
2023/09/07 11:19:43;;;;;;;3.47;2.65;;;30.80;97.90;;;;;;4993278;28;20090;-38
2023/09/07 11:22:13;;;;;;;4.32;2.15;;;30.90;97.50;;;;;;4991980;28;20040;-42
2023/09/07 11:24:40;;;;;;;3.13;2.45;;;30.90;97.00;;;;;;4993200;28;20376;-42
2023/09/07 11:27:05;;;;;;;7.57;2.40;;;30.80;97.40;;;;;;4989167;28;20030;-39
2023/09/07 11:29:32;;;;;;;2.33;2.13;;;30.70;97.20;;;;;;4990636;28;20506;-38
2023/09/07 11:32:10;;;;;;;2.95;2.30;;;30.60;97.00;;;;;;4990408;28;20117;-39
2023/09/07 11:34:51;;;;;;;5.22;2.92;;;30.60;97.10;;;;;;4993308;28;20026;-39
2023/09/07 11:37:23;;;;;;;8.02;2.47;;;30.50;96.90;;;;;;4973240;28;20101;-41
2023/09/07 11:39:49;;;;;;;3.03;2.83;;;30.60;97.30;;;;;;4989344;28;20046;-37
2023/09/07 11:42:14;;;;;;;3.28;2.40;;;30.50;97.70;;;;;;4991828;28;20538;-39
2023/09/07 11:44:40;;;;;;;3.42;2.95;;;30.70;97.70;;;;;;4977672;28;20038;-40
2023/09/07 11:47:06;;;;;;;3.47;1.90;;;30.80;97.40;;;;;;4988796;28;20026;-40
2023/09/07 11:49:32;;;;;;;2.53;2.25;;;30.90;96.90;;;;;;4992933;28;20065;-38
2023/09/07 11:51:58;;;;;;;3.50;2.90;;;30.80;96.80;;;;;;4993049;28;20546;-39
2023/09/07 11:54:23;;;;;;;3.78;2.80;;;30.70;97.30;;;;;;4992248;28;20026;-39
2023/09/07 11:56:49;;;;;;;6.05;2.47;;;30.70;97.40;;;;;;4993106;28;20034;-38
2023/09/07 11:59:17;;;;;;;2.47;2.28;;;30.80;97.00;;;;;;4988452;28;20033;-41
2023/09/07 12:01:43;;;;;;;2.75;2.50;;;30.90;97.00;;;;;;4992408;28;20077;-41
2023/09/07 12:04:09;;;;;;;6.93;2.95;;;30.90;97.10;;;;;;4991626;28;20026;-39
2023/09/07 12:06:35;;;;;;;2.20;1.93;;;31.00;97.30;;;;;;4973428;28;20396;-41
2023/09/07 12:09:01;;;;;;;2.88;2.38;;;31.00;97.00;;;;;;4993073;28;20033;-37
2023/09/07 12:11:27;;;;;;;4.78;2.63;;;31.10;96.90;;;;;;4993166;28;20022;-38
2023/09/07 12:13:53;;;;;;;2.80;2.60;;;31.10;97.00;;;;;;4992940;28;20376;-39
2023/09/07 12:16:18;;;;;;;3.17;2.88;;;31.20;97.30;;;;;;4992744;28;20022;-51
2023/09/07 12:18:44;;;;;;;2.90;2.60;;;31.30;97.20;;;;;;4973719;28;20102;-52
2023/09/07 12:21:09;;;;;;;2.78;2.53;;;31.30;96.80;;;;;;4980004;28;20018;-56
2023/09/07 12:23:35;;;;;;;3.00;2.30;;;31.30;97.00;;;;;;4986758;28;20027;-53
2023/09/07 12:26:04;;;;;;;2.90;2.60;;;31.30;97.10;;;;;;4986345;28;20025;-52
2023/09/07 12:28:30;;;;;;;2.75;2.55;;;31.40;97.00;;;;;;4994444;28;20030;-51
2023/09/07 12:30:56;;;;;;;7.32;2.45;;;31.40;96.90;;;;;;4995935;28;20026;-51
2023/09/07 12:33:21;;;;;;;14.23;2.80;;;31.40;97.20;;;;;;4996393;28;20027;-51
2023/09/07 12:35:47;;;;;;;3.85;2.50;;;31.50;96.80;;;;;;4996340;28;20081;-52
2023/09/07 12:38:17;;;;;;;5.90;2.45;;;31.50;96.70;;;;;;4995950;28;20427;-53
2023/09/07 12:40:43;;;;;;;3.08;2.70;;;31.40;96.60;;;;;;4974608;28;20029;-52
2023/09/07 12:43:09;;;;;;;4.13;2.58;;;31.40;96.80;;;;;;4990495;28;20460;-52
2023/09/07 12:45:35;;;;;;;5.35;2.75;;;31.40;96.50;;;;;;4992996;28;20018;-49
2023/09/07 12:48:01;;;;;;;7.97;2.95;;;31.30;96.70;;;;;;4991557;28;20023;-53